sensor_id;sensor_type;location;lat;lon;timestamp;P1;durP1;ratioP1;P2;durP2;ratioP2
32216;SDS011;67098;51.140;4.088;2023-05-19T00:01:08;9.68;;;5.35;;
32216;SDS011;67098;51.140;4.088;2023-05-19T00:03:37;17.00;;;6.90;;
32216;SDS011;67098;51.140;4.088;2023-05-19T00:06:12;9.38;;;5.65;;
32216;SDS011;67098;51.140;4.088;2023-05-19T00:08:38;14.93;;;6.50;;
32216;SDS011;67098;51.140;4.088;2023-05-19T00:11:04;11.85;;;6.18;;
32216;SDS011;67098;51.140;4.088;2023-05-19T00:13:31;12.52;;;5.90;;
32216;SDS011;67098;51.140;4.088;2023-05-19T00:15:57;13.50;;;5.68;;
32216;SDS011;67098;51.140;4.088;2023-05-19T00:18:23;14.85;;;6.30;;
32216;SDS011;67098;51.140;4.088;2023-05-19T00:20:48;15.80;;;6.50;;
32216;SDS011;67098;51.140;4.088;2023-05-19T00:23:16;14.00;;;5.70;;
32216;SDS011;67098;51.140;4.088;2023-05-19T00:25:41;9.07;;;5.95;;
32216;SDS011;67098;51.140;4.088;2023-05-19T00:28:07;12.50;;;5.68;;
32216;SDS011;67098;51.140;4.088;2023-05-19T00:30:33;11.77;;;6.30;;
32216;SDS011;67098;51.140;4.088;2023-05-19T00:32:58;10.80;;;5.80;;
32216;SDS011;67098;51.140;4.088;2023-05-19T00:35:24;9.68;;;6.10;;
32216;SDS011;67098;51.140;4.088;2023-05-19T00:37:51;11.50;;;5.97;;
32216;SDS011;67098;51.140;4.088;2023-05-19T00:40:16;11.82;;;5.97;;
32216;SDS011;67098;51.140;4.088;2023-05-19T00:42:42;13.95;;;6.32;;
32216;SDS011;67098;51.140;4.088;2023-05-19T00:45:08;17.55;;;7.07;;
32216;SDS011;67098;51.140;4.088;2023-05-19T00:47:34;11.75;;;6.18;;
32216;SDS011;67098;51.140;4.088;2023-05-19T00:49:59;11.70;;;6.90;;
32216;SDS011;67098;51.140;4.088;2023-05-19T00:52:25;12.73;;;6.65;;
32216;SDS011;67098;51.140;4.088;2023-05-19T00:54:52;11.05;;;6.35;;
32216;SDS011;67098;51.140;4.088;2023-05-19T00:57:20;13.20;;;7.00;;
32216;SDS011;67098;51.140;4.088;2023-05-19T00:59:47;14.75;;;6.80;;
32216;SDS011;67098;51.140;4.088;2023-05-19T01:02:13;14.85;;;7.22;;
32216;SDS011;67098;51.140;4.088;2023-05-19T01:04:39;15.45;;;7.82;;
32216;SDS011;67098;51.140;4.088;2023-05-19T01:07:06;14.00;;;7.28;;
32216;SDS011;67098;51.140;4.088;2023-05-19T01:09:31;12.07;;;7.18;;
32216;SDS011;67098;51.140;4.088;2023-05-19T01:11:58;14.50;;;7.13;;
32216;SDS011;67098;51.140;4.088;2023-05-19T01:14:25;13.45;;;7.60;;
32216;SDS011;67098;51.140;4.088;2023-05-19T01:28:30;12.43;;;6.95;;
32216;SDS011;67098;51.140;4.088;2023-05-19T01:31:05;11.75;;;7.05;;
32216;SDS011;67098;51.140;4.088;2023-05-19T01:33:33;16.30;;;8.15;;
32216;SDS011;67098;51.140;4.088;2023-05-19T01:36:02;11.63;;;7.22;;
32216;SDS011;67098;51.140;4.088;2023-05-19T01:38:29;13.23;;;7.82;;
32216;SDS011;67098;51.140;4.088;2023-05-19T01:40:58;12.55;;;7.60;;
32216;SDS011;67098;51.140;4.088;2023-05-19T01:43:25;14.90;;;8.20;;
32216;SDS011;67098;51.140;4.088;2023-05-19T01:45:52;16.73;;;8.00;;
32216;SDS011;67098;51.140;4.088;2023-05-19T01:48:18;12.15;;;7.47;;
32216;SDS011;67098;51.140;4.088;2023-05-19T01:50:45;13.55;;;8.07;;
32216;SDS011;67098;51.140;4.088;2023-05-19T01:53:11;13.80;;;7.80;;
32216;SDS011;67098;51.140;4.088;2023-05-19T01:55:44;13.20;;;7.47;;
32216;SDS011;67098;51.140;4.088;2023-05-19T02:08:41;10.77;;;7.13;;
32216;SDS011;67098;51.140;4.088;2023-05-19T02:11:54;14.85;;;7.47;;
32216;SDS011;67098;51.140;4.088;2023-05-19T02:14:02;14.15;;;7.78;;
32216;SDS011;67098;51.140;4.088;2023-05-19T02:16:49;15.10;;;7.63;;
32216;SDS011;67098;51.140;4.088;2023-05-19T02:19:26;13.18;;;7.32;;
32216;SDS011;67098;51.140;4.088;2023-05-19T02:21:54;12.38;;;8.00;;
32216;SDS011;67098;51.140;4.088;2023-05-19T02:24:20;18.27;;;7.85;;
32216;SDS011;67098;51.140;4.088;2023-05-19T02:26:49;13.32;;;7.72;;
32216;SDS011;67098;51.140;4.088;2023-05-19T02:29:16;13.75;;;7.40;;
32216;SDS011;67098;51.140;4.088;2023-05-19T02:31:42;15.52;;;8.00;;
32216;SDS011;67098;51.140;4.088;2023-05-19T02:34:07;17.73;;;8.25;;
32216;SDS011;67098;51.140;4.088;2023-05-19T02:36:33;12.27;;;7.50;;
32216;SDS011;67098;51.140;4.088;2023-05-19T02:39:03;11.70;;;8.05;;
32216;SDS011;67098;51.140;4.088;2023-05-19T02:41:29;18.02;;;7.82;;
32216;SDS011;67098;51.140;4.088;2023-05-19T02:43:55;13.98;;;8.50;;
32216;SDS011;67098;51.140;4.088;2023-05-19T02:46:22;13.02;;;7.75;;
32216;SDS011;67098;51.140;4.088;2023-05-19T02:48:47;13.38;;;7.95;;
32216;SDS011;67098;51.140;4.088;2023-05-19T02:51:14;15.23;;;8.25;;
32216;SDS011;67098;51.140;4.088;2023-05-19T02:53:40;15.25;;;7.72;;
32216;SDS011;67098;51.140;4.088;2023-05-19T02:56:05;16.40;;;8.98;;
32216;SDS011;67098;51.140;4.088;2023-05-19T02:58:31;11.60;;;7.53;;
32216;SDS011;67098;51.140;4.088;2023-05-19T03:00:57;14.73;;;8.00;;
32216;SDS011;67098;51.140;4.088;2023-05-19T03:03:22;16.75;;;8.13;;
32216;SDS011;67098;51.140;4.088;2023-05-19T03:05:48;12.75;;;7.63;;
32216;SDS011;67098;51.140;4.088;2023-05-19T03:08:13;14.18;;;8.20;;
32216;SDS011;67098;51.140;4.088;2023-05-19T03:10:39;15.45;;;8.35;;
32216;SDS011;67098;51.140;4.088;2023-05-19T03:13:05;9.82;;;7.05;;
32216;SDS011;67098;51.140;4.088;2023-05-19T03:15:31;14.90;;;8.07;;
32216;SDS011;67098;51.140;4.088;2023-05-19T03:17:57;15.82;;;8.25;;
32216;SDS011;67098;51.140;4.088;2023-05-19T03:20:23;15.80;;;8.45;;
32216;SDS011;67098;51.140;4.088;2023-05-19T03:22:48;12.90;;;7.75;;
32216;SDS011;67098;51.140;4.088;2023-05-19T03:25:14;13.90;;;7.85;;
32216;SDS011;67098;51.140;4.088;2023-05-19T03:27:41;13.93;;;8.55;;
32216;SDS011;67098;51.140;4.088;2023-05-19T03:30:07;14.18;;;7.50;;
32216;SDS011;67098;51.140;4.088;2023-05-19T03:32:33;13.07;;;8.05;;
32216;SDS011;67098;51.140;4.088;2023-05-19T03:35:02;14.65;;;7.80;;
32216;SDS011;67098;51.140;4.088;2023-05-19T03:37:29;15.45;;;7.95;;
32216;SDS011;67098;51.140;4.088;2023-05-19T03:39:55;14.55;;;7.82;;
32216;SDS011;67098;51.140;4.088;2023-05-19T03:42:21;16.88;;;8.70;;
32216;SDS011;67098;51.140;4.088;2023-05-19T03:44:47;14.18;;;8.00;;
32216;SDS011;67098;51.140;4.088;2023-05-19T03:47:12;17.13;;;7.50;;
32216;SDS011;67098;51.140;4.088;2023-05-19T03:49:38;14.00;;;7.72;;
32216;SDS011;67098;51.140;4.088;2023-05-19T03:52:04;13.35;;;7.68;;
32216;SDS011;67098;51.140;4.088;2023-05-19T03:54:30;20.17;;;8.73;;
32216;SDS011;67098;51.140;4.088;2023-05-19T03:56:55;14.68;;;8.25;;
32216;SDS011;67098;51.140;4.088;2023-05-19T03:59:21;12.75;;;7.72;;
32216;SDS011;67098;51.140;4.088;2023-05-19T04:01:47;12.27;;;7.82;;
32216;SDS011;67098;51.140;4.088;2023-05-19T04:04:13;12.52;;;8.10;;
32216;SDS011;67098;51.140;4.088;2023-05-19T04:06:39;14.82;;;7.70;;
32216;SDS011;67098;51.140;4.088;2023-05-19T04:09:10;12.57;;;7.85;;
32216;SDS011;67098;51.140;4.088;2023-05-19T04:11:38;12.63;;;7.20;;
32216;SDS011;67098;51.140;4.088;2023-05-19T04:14:04;20.40;;;8.57;;
32216;SDS011;67098;51.140;4.088;2023-05-19T04:16:30;15.68;;;8.23;;
32216;SDS011;67098;51.140;4.088;2023-05-19T04:18:56;13.95;;;8.57;;
32216;SDS011;67098;51.140;4.088;2023-05-19T04:21:22;16.27;;;8.40;;
32216;SDS011;67098;51.140;4.088;2023-05-19T04:23:47;18.27;;;9.80;;
32216;SDS011;67098;51.140;4.088;2023-05-19T04:26:13;16.33;;;8.75;;
32216;SDS011;67098;51.140;4.088;2023-05-19T04:28:39;14.05;;;8.50;;
32216;SDS011;67098;51.140;4.088;2023-05-19T04:31:08;25.20;;;9.55;;
32216;SDS011;67098;51.140;4.088;2023-05-19T04:33:38;19.60;;;9.13;;
32216;SDS011;67098;51.140;4.088;2023-05-19T04:36:04;24.77;;;9.63;;
32216;SDS011;67098;51.140;4.088;2023-05-19T04:38:35;17.00;;;7.90;;
32216;SDS011;67098;51.140;4.088;2023-05-19T04:41:03;11.45;;;7.50;;
32216;SDS011;67098;51.140;4.088;2023-05-19T04:43:35;21.63;;;8.65;;
32216;SDS011;67098;51.140;4.088;2023-05-19T04:46:01;17.02;;;7.68;;
32216;SDS011;67098;51.140;4.088;2023-05-19T04:48:31;21.48;;;8.63;;
32216;SDS011;67098;51.140;4.088;2023-05-19T04:50:57;15.93;;;8.80;;
32216;SDS011;67098;51.140;4.088;2023-05-19T04:53:26;18.90;;;8.60;;
32216;SDS011;67098;51.140;4.088;2023-05-19T04:55:53;18.58;;;8.82;;
32216;SDS011;67098;51.140;4.088;2023-05-19T04:58:21;17.42;;;7.97;;
32216;SDS011;67098;51.140;4.088;2023-05-19T05:00:50;15.02;;;8.65;;
32216;SDS011;67098;51.140;4.088;2023-05-19T05:03:17;20.48;;;8.80;;
32216;SDS011;67098;51.140;4.088;2023-05-19T05:05:46;15.67;;;8.67;;
32216;SDS011;67098;51.140;4.088;2023-05-19T05:08:12;19.25;;;8.02;;
32216;SDS011;67098;51.140;4.088;2023-05-19T05:10:40;17.00;;;8.25;;
32216;SDS011;67098;51.140;4.088;2023-05-19T05:13:06;19.70;;;8.45;;
32216;SDS011;67098;51.140;4.088;2023-05-19T05:15:32;18.00;;;7.68;;
32216;SDS011;67098;51.140;4.088;2023-05-19T05:17:59;15.75;;;7.63;;
32216;SDS011;67098;51.140;4.088;2023-05-19T05:20:25;18.00;;;7.57;;
32216;SDS011;67098;51.140;4.088;2023-05-19T05:22:51;19.48;;;7.35;;
32216;SDS011;67098;51.140;4.088;2023-05-19T05:25:17;17.42;;;7.78;;
32216;SDS011;67098;51.140;4.088;2023-05-19T05:27:43;17.30;;;7.32;;
32216;SDS011;67098;51.140;4.088;2023-05-19T05:30:09;16.80;;;7.50;;
32216;SDS011;67098;51.140;4.088;2023-05-19T05:32:35;17.45;;;8.45;;
32216;SDS011;67098;51.140;4.088;2023-05-19T05:35:01;16.17;;;7.40;;
32216;SDS011;67098;51.140;4.088;2023-05-19T05:37:26;16.90;;;7.65;;
32216;SDS011;67098;51.140;4.088;2023-05-19T05:39:52;20.95;;;7.97;;
32216;SDS011;67098;51.140;4.088;2023-05-19T05:42:18;17.38;;;7.75;;
32216;SDS011;67098;51.140;4.088;2023-05-19T05:44:44;14.38;;;7.32;;
32216;SDS011;67098;51.140;4.088;2023-05-19T05:47:10;15.48;;;7.40;;
32216;SDS011;67098;51.140;4.088;2023-05-19T05:49:36;13.65;;;7.30;;
32216;SDS011;67098;51.140;4.088;2023-05-19T05:52:04;20.88;;;9.00;;
32216;SDS011;67098;51.140;4.088;2023-05-19T05:54:32;14.88;;;8.10;;
32216;SDS011;67098;51.140;4.088;2023-05-19T05:57:00;13.07;;;7.65;;
32216;SDS011;67098;51.140;4.088;2023-05-19T05:59:26;19.73;;;8.60;;
32216;SDS011;67098;51.140;4.088;2023-05-19T06:01:52;16.73;;;7.70;;
32216;SDS011;67098;51.140;4.088;2023-05-19T06:04:17;15.75;;;8.02;;
32216;SDS011;67098;51.140;4.088;2023-05-19T06:06:45;18.73;;;8.40;;
32216;SDS011;67098;51.140;4.088;2023-05-19T06:09:10;20.73;;;7.78;;
32216;SDS011;67098;51.140;4.088;2023-05-19T06:11:36;22.08;;;10.18;;
32216;SDS011;67098;51.140;4.088;2023-05-19T06:14:02;15.20;;;8.40;;
32216;SDS011;67098;51.140;4.088;2023-05-19T06:16:28;14.80;;;8.43;;
32216;SDS011;67098;51.140;4.088;2023-05-19T06:18:53;21.08;;;8.07;;
32216;SDS011;67098;51.140;4.088;2023-05-19T06:21:19;20.00;;;8.82;;
32216;SDS011;67098;51.140;4.088;2023-05-19T06:23:45;16.75;;;8.43;;
32216;SDS011;67098;51.140;4.088;2023-05-19T06:26:11;19.67;;;8.18;;
32216;SDS011;67098;51.140;4.088;2023-05-19T06:28:37;16.95;;;8.30;;
32216;SDS011;67098;51.140;4.088;2023-05-19T06:31:02;16.50;;;8.20;;
32216;SDS011;67098;51.140;4.088;2023-05-19T06:33:28;18.65;;;8.25;;
32216;SDS011;67098;51.140;4.088;2023-05-19T06:35:54;18.60;;;8.20;;
32216;SDS011;67098;51.140;4.088;2023-05-19T06:38:19;20.05;;;9.65;;
32216;SDS011;67098;51.140;4.088;2023-05-19T06:40:45;20.33;;;8.82;;
32216;SDS011;67098;51.140;4.088;2023-05-19T06:43:11;14.60;;;8.32;;
32216;SDS011;67098;51.140;4.088;2023-05-19T06:45:38;21.63;;;8.93;;
32216;SDS011;67098;51.140;4.088;2023-05-19T06:48:04;21.08;;;9.40;;
32216;SDS011;67098;51.140;4.088;2023-05-19T06:50:30;19.30;;;8.98;;
32216;SDS011;67098;51.140;4.088;2023-05-19T06:52:55;19.33;;;9.07;;
32216;SDS011;67098;51.140;4.088;2023-05-19T06:55:22;14.90;;;8.63;;
32216;SDS011;67098;51.140;4.088;2023-05-19T06:57:48;21.83;;;8.98;;
32216;SDS011;67098;51.140;4.088;2023-05-19T07:00:13;20.00;;;9.60;;
32216;SDS011;67098;51.140;4.088;2023-05-19T07:02:41;24.02;;;9.80;;
32216;SDS011;67098;51.140;4.088;2023-05-19T07:05:06;20.92;;;8.82;;
32216;SDS011;67098;51.140;4.088;2023-05-19T07:07:33;16.67;;;8.93;;
32216;SDS011;67098;51.140;4.088;2023-05-19T07:09:59;20.30;;;9.30;;
32216;SDS011;67098;51.140;4.088;2023-05-19T07:12:24;17.52;;;9.15;;
32216;SDS011;67098;51.140;4.088;2023-05-19T07:14:51;15.98;;;8.57;;
32216;SDS011;67098;51.140;4.088;2023-05-19T07:17:17;23.90;;;9.65;;
32216;SDS011;67098;51.140;4.088;2023-05-19T07:19:42;19.33;;;8.50;;
32216;SDS011;67098;51.140;4.088;2023-05-19T07:22:08;19.65;;;8.00;;
32216;SDS011;67098;51.140;4.088;2023-05-19T07:24:34;16.90;;;7.95;;
32216;SDS011;67098;51.140;4.088;2023-05-19T07:27:00;21.15;;;9.57;;
32216;SDS011;67098;51.140;4.088;2023-05-19T07:29:25;20.92;;;9.35;;
32216;SDS011;67098;51.140;4.088;2023-05-19T07:31:51;13.65;;;7.85;;
32216;SDS011;67098;51.140;4.088;2023-05-19T07:34:23;25.27;;;9.00;;
32216;SDS011;67098;51.140;4.088;2023-05-19T07:36:48;13.85;;;8.15;;
32216;SDS011;67098;51.140;4.088;2023-05-19T07:39:15;20.13;;;8.32;;
32216;SDS011;67098;51.140;4.088;2023-05-19T07:41:42;20.65;;;8.75;;
32216;SDS011;67098;51.140;4.088;2023-05-19T07:44:08;16.48;;;9.90;;
32216;SDS011;67098;51.140;4.088;2023-05-19T07:46:34;16.75;;;8.55;;
32216;SDS011;67098;51.140;4.088;2023-05-19T07:49:00;17.60;;;8.38;;
32216;SDS011;67098;51.140;4.088;2023-05-19T07:51:26;18.67;;;9.02;;
32216;SDS011;67098;51.140;4.088;2023-05-19T07:53:51;18.48;;;9.30;;
32216;SDS011;67098;51.140;4.088;2023-05-19T07:56:17;19.13;;;9.00;;
32216;SDS011;67098;51.140;4.088;2023-05-19T07:58:44;18.65;;;8.32;;
32216;SDS011;67098;51.140;4.088;2023-05-19T08:01:10;18.33;;;8.40;;
32216;SDS011;67098;51.140;4.088;2023-05-19T08:03:35;17.55;;;8.10;;
32216;SDS011;67098;51.140;4.088;2023-05-19T08:06:01;19.77;;;7.85;;
32216;SDS011;67098;51.140;4.088;2023-05-19T08:08:27;17.65;;;8.25;;
32216;SDS011;67098;51.140;4.088;2023-05-19T08:10:52;19.83;;;8.70;;
32216;SDS011;67098;51.140;4.088;2023-05-19T08:13:18;18.38;;;9.70;;
32216;SDS011;67098;51.140;4.088;2023-05-19T08:15:44;17.15;;;7.82;;
32216;SDS011;67098;51.140;4.088;2023-05-19T08:18:10;16.17;;;8.52;;
32216;SDS011;67098;51.140;4.088;2023-05-19T08:20:36;20.30;;;8.15;;
32216;SDS011;67098;51.140;4.088;2023-05-19T08:23:01;13.13;;;7.40;;
32216;SDS011;67098;51.140;4.088;2023-05-19T08:25:27;16.23;;;8.43;;
32216;SDS011;67098;51.140;4.088;2023-05-19T08:27:53;16.65;;;8.60;;
32216;SDS011;67098;51.140;4.088;2023-05-19T08:30:19;15.85;;;8.00;;
32216;SDS011;67098;51.140;4.088;2023-05-19T08:32:46;14.30;;;7.07;;
32216;SDS011;67098;51.140;4.088;2023-05-19T08:35:12;16.00;;;7.90;;
32216;SDS011;67098;51.140;4.088;2023-05-19T08:37:38;18.02;;;7.85;;
32216;SDS011;67098;51.140;4.088;2023-05-19T08:40:05;15.90;;;7.68;;
32216;SDS011;67098;51.140;4.088;2023-05-19T08:42:32;13.48;;;7.18;;
32216;SDS011;67098;51.140;4.088;2023-05-19T08:44:59;13.75;;;7.97;;
32216;SDS011;67098;51.140;4.088;2023-05-19T08:47:25;14.52;;;8.35;;
32216;SDS011;67098;51.140;4.088;2023-05-19T08:49:53;15.45;;;8.15;;
32216;SDS011;67098;51.140;4.088;2023-05-19T08:52:26;15.70;;;6.68;;
32216;SDS011;67098;51.140;4.088;2023-05-19T08:55:03;14.25;;;6.00;;
32216;SDS011;67098;51.140;4.088;2023-05-19T08:57:33;18.17;;;7.60;;
32216;SDS011;67098;51.140;4.088;2023-05-19T09:00:00;13.98;;;6.97;;
32216;SDS011;67098;51.140;4.088;2023-05-19T09:02:30;11.07;;;7.10;;
32216;SDS011;67098;51.140;4.088;2023-05-19T09:04:57;14.52;;;7.32;;
32216;SDS011;67098;51.140;4.088;2023-05-19T09:07:24;13.68;;;7.20;;
32216;SDS011;67098;51.140;4.088;2023-05-19T09:09:54;13.88;;;7.03;;
32216;SDS011;67098;51.140;4.088;2023-05-19T09:12:20;18.98;;;8.25;;
32216;SDS011;67098;51.140;4.088;2023-05-19T09:14:47;15.48;;;7.65;;
32216;SDS011;67098;51.140;4.088;2023-05-19T09:17:12;16.17;;;8.00;;
32216;SDS011;67098;51.140;4.088;2023-05-19T09:19:43;19.67;;;7.22;;
32216;SDS011;67098;51.140;4.088;2023-05-19T09:22:11;17.50;;;6.25;;
32216;SDS011;67098;51.140;4.088;2023-05-19T09:24:40;16.48;;;6.72;;
32216;SDS011;67098;51.140;4.088;2023-05-19T09:27:06;13.93;;;6.50;;
32216;SDS011;67098;51.140;4.088;2023-05-19T09:29:32;14.13;;;6.85;;
32216;SDS011;67098;51.140;4.088;2023-05-19T09:31:58;17.17;;;6.70;;
32216;SDS011;67098;51.140;4.088;2023-05-19T09:34:29;12.88;;;6.38;;
32216;SDS011;67098;51.140;4.088;2023-05-19T09:36:55;17.27;;;6.32;;
32216;SDS011;67098;51.140;4.088;2023-05-19T09:39:23;13.05;;;6.75;;
32216;SDS011;67098;51.140;4.088;2023-05-19T09:41:56;16.92;;;8.10;;
32216;SDS011;67098;51.140;4.088;2023-05-19T09:44:23;13.52;;;6.57;;
32216;SDS011;67098;51.140;4.088;2023-05-19T09:46:54;14.02;;;7.95;;
32216;SDS011;67098;51.140;4.088;2023-05-19T09:49:24;17.10;;;7.72;;
32216;SDS011;67098;51.140;4.088;2023-05-19T09:51:54;16.98;;;6.78;;
32216;SDS011;67098;51.140;4.088;2023-05-19T09:54:21;15.13;;;5.70;;
32216;SDS011;67098;51.140;4.088;2023-05-19T09:57:01;15.63;;;6.50;;
32216;SDS011;67098;51.140;4.088;2023-05-19T09:59:28;16.75;;;7.13;;
32216;SDS011;67098;51.140;4.088;2023-05-19T10:01:55;15.88;;;6.45;;
32216;SDS011;67098;51.140;4.088;2023-05-19T10:04:23;14.85;;;5.68;;
32216;SDS011;67098;51.140;4.088;2023-05-19T10:06:53;16.08;;;7.53;;
32216;SDS011;67098;51.140;4.088;2023-05-19T10:09:24;14.15;;;6.80;;
32216;SDS011;67098;51.140;4.088;2023-05-19T10:11:51;16.58;;;6.72;;
32216;SDS011;67098;51.140;4.088;2023-05-19T10:14:20;13.32;;;5.97;;
32216;SDS011;67098;51.140;4.088;2023-05-19T10:16:49;12.50;;;6.00;;
32216;SDS011;67098;51.140;4.088;2023-05-19T10:19:17;10.90;;;4.93;;
32216;SDS011;67098;51.140;4.088;2023-05-19T10:21:45;12.70;;;5.30;;
32216;SDS011;67098;51.140;4.088;2023-05-19T10:24:11;13.15;;;4.57;;
32216;SDS011;67098;51.140;4.088;2023-05-19T10:26:38;17.50;;;5.30;;
32216;SDS011;67098;51.140;4.088;2023-05-19T10:29:05;15.05;;;4.93;;
32216;SDS011;67098;51.140;4.088;2023-05-19T10:31:31;14.13;;;5.72;;
32216;SDS011;67098;51.140;4.088;2023-05-19T10:39:29;7.30;;;2.88;;
32216;SDS011;67098;51.140;4.088;2023-05-19T10:42:03;14.80;;;5.18;;
32216;SDS011;67098;51.140;4.088;2023-05-19T10:47:26;10.35;;;5.43;;
32216;SDS011;67098;51.140;4.088;2023-05-19T10:49:53;8.75;;;4.43;;
32216;SDS011;67098;51.140;4.088;2023-05-19T10:52:20;9.80;;;4.30;;
32216;SDS011;67098;51.140;4.088;2023-05-19T10:54:47;8.65;;;4.38;;
32216;SDS011;67098;51.140;4.088;2023-05-19T10:57:14;9.75;;;4.50;;
32216;SDS011;67098;51.140;4.088;2023-05-19T10:59:41;12.98;;;4.47;;
32216;SDS011;67098;51.140;4.088;2023-05-19T11:02:08;10.55;;;3.88;;
32216;SDS011;67098;51.140;4.088;2023-05-19T11:04:47;11.75;;;3.65;;
32216;SDS011;67098;51.140;4.088;2023-05-19T11:07:17;12.48;;;4.78;;
32216;SDS011;67098;51.140;4.088;2023-05-19T11:09:49;10.77;;;4.35;;
32216;SDS011;67098;51.140;4.088;2023-05-19T11:12:22;11.40;;;3.78;;
32216;SDS011;67098;51.140;4.088;2023-05-19T11:14:51;8.30;;;3.45;;
32216;SDS011;67098;51.140;4.088;2023-05-19T11:17:18;8.77;;;3.88;;
32216;SDS011;67098;51.140;4.088;2023-05-19T11:19:54;13.52;;;3.13;;
32216;SDS011;67098;51.140;4.088;2023-05-19T11:22:22;11.77;;;3.70;;
32216;SDS011;67098;51.140;4.088;2023-05-19T11:24:49;8.20;;;4.22;;
32216;SDS011;67098;51.140;4.088;2023-05-19T11:29:52;8.65;;;3.60;;
32216;SDS011;67098;51.140;4.088;2023-05-19T11:32:20;15.80;;;3.72;;
32216;SDS011;67098;51.140;4.088;2023-05-19T11:34:49;10.77;;;3.90;;
32216;SDS011;67098;51.140;4.088;2023-05-19T11:37:15;8.52;;;3.80;;
32216;SDS011;67098;51.140;4.088;2023-05-19T11:39:41;11.13;;;4.05;;
32216;SDS011;67098;51.140;4.088;2023-05-19T11:42:08;9.50;;;3.28;;
32216;SDS011;67098;51.140;4.088;2023-05-19T11:44:36;11.48;;;3.63;;
32216;SDS011;67098;51.140;4.088;2023-05-19T11:47:02;10.88;;;3.22;;
32216;SDS011;67098;51.140;4.088;2023-05-19T11:49:28;10.00;;;3.75;;
32216;SDS011;67098;51.140;4.088;2023-05-19T11:51:55;10.23;;;3.35;;
32216;SDS011;67098;51.140;4.088;2023-05-19T11:54:27;15.50;;;3.60;;
32216;SDS011;67098;51.140;4.088;2023-05-19T11:56:54;10.65;;;3.78;;
32216;SDS011;67098;51.140;4.088;2023-05-19T11:59:28;9.23;;;3.45;;
32216;SDS011;67098;51.140;4.088;2023-05-19T12:01:59;9.85;;;3.40;;
32216;SDS011;67098;51.140;4.088;2023-05-19T12:04:44;8.07;;;3.00;;
32216;SDS011;67098;51.140;4.088;2023-05-19T12:07:10;10.73;;;3.47;;
32216;SDS011;67098;51.140;4.088;2023-05-19T12:09:37;11.77;;;3.28;;
32216;SDS011;67098;51.140;4.088;2023-05-19T12:12:03;11.70;;;3.47;;
32216;SDS011;67098;51.140;4.088;2023-05-19T12:14:29;9.07;;;3.22;;
32216;SDS011;67098;51.140;4.088;2023-05-19T12:16:55;11.82;;;3.45;;
32216;SDS011;67098;51.140;4.088;2023-05-19T12:19:24;9.02;;;3.70;;
32216;SDS011;67098;51.140;4.088;2023-05-19T12:21:51;8.50;;;3.08;;
32216;SDS011;67098;51.140;4.088;2023-05-19T12:24:18;11.65;;;3.78;;
32216;SDS011;67098;51.140;4.088;2023-05-19T12:26:44;8.18;;;3.45;;
32216;SDS011;67098;51.140;4.088;2023-05-19T12:29:11;10.40;;;3.35;;
32216;SDS011;67098;51.140;4.088;2023-05-19T12:31:37;8.82;;;3.28;;
32216;SDS011;67098;51.140;4.088;2023-05-19T12:34:03;8.60;;;3.47;;
32216;SDS011;67098;51.140;4.088;2023-05-19T12:36:30;9.82;;;3.55;;
32216;SDS011;67098;51.140;4.088;2023-05-19T12:38:56;7.38;;;2.88;;
32216;SDS011;67098;51.140;4.088;2023-05-19T12:41:25;8.07;;;2.95;;
32216;SDS011;67098;51.140;4.088;2023-05-19T12:43:52;8.43;;;3.40;;
32216;SDS011;67098;51.140;4.088;2023-05-19T12:46:18;9.43;;;3.42;;
32216;SDS011;67098;51.140;4.088;2023-05-19T12:48:45;9.70;;;2.88;;
32216;SDS011;67098;51.140;4.088;2023-05-19T12:51:17;11.10;;;3.33;;
32216;SDS011;67098;51.140;4.088;2023-05-19T12:53:44;6.00;;;3.08;;
32216;SDS011;67098;51.140;4.088;2023-05-19T12:56:13;8.77;;;3.55;;
32216;SDS011;67098;51.140;4.088;2023-05-19T12:58:40;10.65;;;3.40;;
32216;SDS011;67098;51.140;4.088;2023-05-19T13:01:13;9.48;;;3.13;;
32216;SDS011;67098;51.140;4.088;2023-05-19T13:03:40;12.23;;;3.58;;
32216;SDS011;67098;51.140;4.088;2023-05-19T13:06:07;14.52;;;3.13;;
32216;SDS011;67098;51.140;4.088;2023-05-19T13:08:33;12.32;;;3.20;;
32216;SDS011;67098;51.140;4.088;2023-05-19T13:10:59;12.40;;;3.15;;
32216;SDS011;67098;51.140;4.088;2023-05-19T13:13:25;10.00;;;3.47;;
32216;SDS011;67098;51.140;4.088;2023-05-19T13:15:51;10.82;;;3.20;;
32216;SDS011;67098;51.140;4.088;2023-05-19T13:18:17;7.50;;;3.20;;
32216;SDS011;67098;51.140;4.088;2023-05-19T13:20:44;6.20;;;2.97;;
32216;SDS011;67098;51.140;4.088;2023-05-19T13:23:11;10.13;;;2.78;;
32216;SDS011;67098;51.140;4.088;2023-05-19T13:25:37;8.07;;;3.03;;
32216;SDS011;67098;51.140;4.088;2023-05-19T13:28:03;8.48;;;3.22;;
32216;SDS011;67098;51.140;4.088;2023-05-19T13:30:31;13.18;;;3.75;;
32216;SDS011;67098;51.140;4.088;2023-05-19T13:32:57;9.95;;;3.10;;
32216;SDS011;67098;51.140;4.088;2023-05-19T13:35:23;9.02;;;2.80;;
32216;SDS011;67098;51.140;4.088;2023-05-19T13:37:49;7.25;;;2.42;;
32216;SDS011;67098;51.140;4.088;2023-05-19T13:40:15;14.85;;;3.33;;
32216;SDS011;67098;51.140;4.088;2023-05-19T13:42:42;7.13;;;2.55;;
32216;SDS011;67098;51.140;4.088;2023-05-19T13:45:09;8.88;;;3.40;;
32216;SDS011;67098;51.140;4.088;2023-05-19T13:47:35;6.32;;;3.33;;
32216;SDS011;67098;51.140;4.088;2023-05-19T13:50:01;9.70;;;3.65;;
32216;SDS011;67098;51.140;4.088;2023-05-19T13:52:31;11.13;;;3.58;;
32216;SDS011;67098;51.140;4.088;2023-05-19T13:54:57;8.63;;;3.20;;
32216;SDS011;67098;51.140;4.088;2023-05-19T13:57:23;7.47;;;2.65;;
32216;SDS011;67098;51.140;4.088;2023-05-19T13:59:50;7.38;;;3.53;;
32216;SDS011;67098;51.140;4.088;2023-05-19T14:02:16;9.60;;;3.08;;
32216;SDS011;67098;51.140;4.088;2023-05-19T14:04:41;8.15;;;3.05;;
32216;SDS011;67098;51.140;4.088;2023-05-19T14:07:07;9.13;;;3.35;;
32216;SDS011;67098;51.140;4.088;2023-05-19T14:09:36;8.98;;;2.70;;
32216;SDS011;67098;51.140;4.088;2023-05-19T14:12:01;5.82;;;3.00;;
32216;SDS011;67098;51.140;4.088;2023-05-19T14:14:27;10.65;;;3.58;;
32216;SDS011;67098;51.140;4.088;2023-05-19T14:16:53;10.65;;;3.17;;
32216;SDS011;67098;51.140;4.088;2023-05-19T14:19:20;9.98;;;3.17;;
32216;SDS011;67098;51.140;4.088;2023-05-19T14:21:47;10.15;;;3.40;;
32216;SDS011;67098;51.140;4.088;2023-05-19T14:24:14;8.38;;;3.03;;
32216;SDS011;67098;51.140;4.088;2023-05-19T14:26:39;11.60;;;3.60;;
32216;SDS011;67098;51.140;4.088;2023-05-19T14:29:05;10.02;;;3.20;;
32216;SDS011;67098;51.140;4.088;2023-05-19T14:31:31;5.65;;;2.70;;
32216;SDS011;67098;51.140;4.088;2023-05-19T14:33:57;11.18;;;3.67;;
32216;SDS011;67098;51.140;4.088;2023-05-19T14:36:22;8.00;;;2.75;;
32216;SDS011;67098;51.140;4.088;2023-05-19T14:38:48;10.82;;;3.08;;
32216;SDS011;67098;51.140;4.088;2023-05-19T14:41:14;6.35;;;2.90;;
32216;SDS011;67098;51.140;4.088;2023-05-19T14:43:40;7.50;;;3.20;;
32216;SDS011;67098;51.140;4.088;2023-05-19T14:46:07;6.28;;;2.83;;
32216;SDS011;67098;51.140;4.088;2023-05-19T14:48:34;6.28;;;2.67;;
32216;SDS011;67098;51.140;4.088;2023-05-19T14:50:59;8.93;;;2.83;;
32216;SDS011;67098;51.140;4.088;2023-05-19T14:53:25;10.32;;;3.03;;
32216;SDS011;67098;51.140;4.088;2023-05-19T14:55:51;9.43;;;3.47;;
32216;SDS011;67098;51.140;4.088;2023-05-19T14:58:16;9.75;;;3.15;;
32216;SDS011;67098;51.140;4.088;2023-05-19T15:00:42;7.47;;;2.95;;
32216;SDS011;67098;51.140;4.088;2023-05-19T15:03:08;7.25;;;2.63;;
32216;SDS011;67098;51.140;4.088;2023-05-19T15:05:35;10.98;;;3.40;;
32216;SDS011;67098;51.140;4.088;2023-05-19T15:08:01;13.23;;;3.13;;